sensor_id;sensor_type;location;lat;lon;timestamp;pressure;altitude;pressure_sealevel;temperature
48628;BMP280;34424;52.234;6.500;2022-08-02T00:03:27;146650.28;;;11.07
48628;BMP280;34424;52.234;6.500;2022-08-02T00:08:31;146657.69;;;11.10
48628;BMP280;34424;52.234;6.500;2022-08-02T00:13:35;146666.41;;;11.14
48628;BMP280;34424;52.234;6.500;2022-08-02T00:18:37;146672.59;;;11.16
48628;BMP280;34424;52.234;6.500;2022-08-02T00:23:41;146675.06;;;11.17
48628;BMP280;34424;52.234;6.500;2022-08-02T00:29:05;146673.84;;;11.17
48628;BMP280;34424;52.234;6.500;2022-08-02T00:34:07;146677.53;;;11.18
48628;BMP280;34424;52.234;6.500;2022-08-02T00:39:30;146689.91;;;11.23
48628;BMP280;34424;52.234;6.500;2022-08-02T00:44:37;146691.16;;;11.24
48628;BMP280;34424;52.234;6.500;2022-08-02T00:49:40;146703.53;;;11.29
48628;BMP280;34424;52.234;6.500;2022-08-02T00:54:42;146699.81;;;11.27
48628;BMP280;34424;52.234;6.500;2022-08-02T00:59:46;146696.13;;;11.26
48628;BMP280;34424;52.234;6.500;2022-08-02T01:04:49;146682.50;;;11.20
48628;BMP280;34424;52.234;6.500;2022-08-02T01:09:52;146663.94;;;11.13
48628;BMP280;34424;52.234;6.500;2022-08-02T01:14:59;146628.00;;;10.98
48628;BMP280;34424;52.234;6.500;2022-08-02T01:20:07;146578.44;;;10.77
48628;BMP280;34424;52.234;6.500;2022-08-02T01:25:24;146540.06;;;10.62
48628;BMP280;34424;52.234;6.500;2022-08-02T01:30:33;146506.66;;;10.48
48628;BMP280;34424;52.234;6.500;2022-08-02T01:35:38;146496.75;;;10.44
48628;BMP280;34424;52.234;6.500;2022-08-02T01:40:52;146479.41;;;10.37
48628;BMP280;34424;52.234;6.500;2022-08-02T01:45:58;146454.66;;;10.27
48628;BMP280;34424;52.234;6.500;2022-08-02T01:51:02;146439.81;;;10.21
48628;BMP280;34424;52.234;6.500;2022-08-02T01:56:06;146418.69;;;10.12
48628;BMP280;34424;52.234;6.500;2022-08-02T02:01:12;146414.97;;;10.10
48628;BMP280;34424;52.234;6.500;2022-08-02T02:06:19;146413.75;;;10.10
48628;BMP280;34424;52.234;6.500;2022-08-02T02:11:24;146407.56;;;10.07
48628;BMP280;34424;52.234;6.500;2022-08-02T02:16:48;146390.25;;;10.00
48628;BMP280;34424;52.234;6.500;2022-08-02T02:21:51;146387.78;;;9.99
48628;BMP280;34424;52.234;6.500;2022-08-02T02:26:55;146377.88;;;9.95
48628;BMP280;34424;52.234;6.500;2022-08-02T02:32:03;146379.13;;;9.96
48628;BMP280;34424;52.234;6.500;2022-08-02T02:37:12;146367.94;;;9.91
48628;BMP280;34424;52.234;6.500;2022-08-02T02:42:17;146365.47;;;9.90
48628;BMP280;34424;52.234;6.500;2022-08-02T02:47:22;146369.19;;;9.92
48628;BMP280;34424;52.234;6.500;2022-08-02T02:52:42;146361.75;;;9.89
48628;BMP280;34424;52.234;6.500;2022-08-02T02:57:45;146360.53;;;9.88
48628;BMP280;34424;52.234;6.500;2022-08-02T03:02:50;146369.19;;;9.92
48628;BMP280;34424;52.234;6.500;2022-08-02T03:07:52;146393.97;;;10.02
48628;BMP280;34424;52.234;6.500;2022-08-02T03:12:55;146422.41;;;10.13
48628;BMP280;34424;52.234;6.500;2022-08-02T03:18:01;146434.81;;;10.19
48628;BMP280;34424;52.234;6.500;2022-08-02T03:23:03;146462.06;;;10.30
48628;BMP280;34424;52.234;6.500;2022-08-02T03:28:07;146476.91;;;10.36
48628;BMP280;34424;52.234;6.500;2022-08-02T03:33:11;146499.22;;;10.45
48628;BMP280;34424;52.234;6.500;2022-08-02T03:38:15;146522.72;;;10.55
48628;BMP280;34424;52.234;6.500;2022-08-02T03:43:19;146504.19;;;10.47
48628;BMP280;34424;52.234;6.500;2022-08-02T03:48:24;146502.94;;;10.47
48628;BMP280;34424;52.234;6.500;2022-08-02T03:53:35;146548.75;;;10.65
48628;BMP280;34424;52.234;6.500;2022-08-02T03:58:38;146595.78;;;10.85
48628;BMP280;34424;52.234;6.500;2022-08-02T04:03:47;146625.53;;;10.97
48628;BMP280;34424;52.234;6.500;2022-08-02T04:08:49;146629.22;;;10.98
48628;BMP280;34424;52.234;6.500;2022-08-02T04:13:53;146640.38;;;11.03
48628;BMP280;34424;52.234;6.500;2022-08-02T04:19:00;146660.16;;;11.11
48628;BMP280;34424;52.234;6.500;2022-08-02T04:24:04;146684.97;;;11.21
48628;BMP280;34424;52.234;6.500;2022-08-02T04:29:11;146710.97;;;11.32
48628;BMP280;34424;52.234;6.500;2022-08-02T04:34:16;146761.75;;;11.53
48628;BMP280;34424;52.234;6.500;2022-08-02T04:39:19;146794.00;;;11.66
48628;BMP280;34424;52.234;6.500;2022-08-02T04:44:21;146826.25;;;11.79
48628;BMP280;34424;52.234;6.500;2022-08-02T04:49:25;146852.28;;;11.90
48628;BMP280;34424;52.234;6.500;2022-08-02T04:54:28;146878.31;;;12.01
48628;BMP280;34424;52.234;6.500;2022-08-02T04:59:30;146877.06;;;12.00
48628;BMP280;34424;52.234;6.500;2022-08-02T05:04:34;146870.88;;;11.97
48628;BMP280;34424;52.234;6.500;2022-08-02T05:09:37;146896.91;;;12.08
48628;BMP280;34424;52.234;6.500;2022-08-02T05:14:39;146950.19;;;12.30
48628;BMP280;34424;52.234;6.500;2022-08-02T05:19:43;147118.84;;;12.99
48628;BMP280;34424;52.234;6.500;2022-08-02T05:24:46;147300.06;;;13.73
48628;BMP280;34424;52.234;6.500;2022-08-02T05:29:48;147672.59;;;15.26
48628;BMP280;34424;52.234;6.500;2022-08-02T05:34:55;147959.75;;;16.43
48628;BMP280;34424;52.234;6.500;2022-08-02T05:39:58;148128.94;;;17.12
48628;BMP280;34424;52.234;6.500;2022-08-02T05:45:01;148242.16;;;17.59
48628;BMP280;34424;52.234;6.500;2022-08-02T05:50:07;148234.72;;;17.56
48628;BMP280;34424;52.234;6.500;2022-08-02T05:55:11;148137.63;;;17.16
48628;BMP280;34424;52.234;6.500;2022-08-02T06:00:17;148106.53;;;17.03
48628;BMP280;34424;52.234;6.500;2022-08-02T06:05:21;148100.31;;;17.01
48628;BMP280;34424;52.234;6.500;2022-08-02T06:10:26;148148.81;;;17.21
48628;BMP280;34424;52.234;6.500;2022-08-02T06:15:29;148214.75;;;17.47
48628;BMP280;34424;52.234;6.500;2022-08-02T06:20:34;148395.28;;;18.21
48628;BMP280;34424;52.234;6.500;2022-08-02T06:25:39;148845.06;;;20.05
48628;BMP280;34424;52.234;6.500;2022-08-02T06:30:52;149176.91;;;21.40
48628;BMP280;34424;52.234;6.500;2022-08-02T06:36:01;149141.94;;;21.26
48628;BMP280;34424;52.234;6.500;2022-08-02T06:41:07;148825.16;;;19.97
48628;BMP280;34424;52.234;6.500;2022-08-02T06:46:14;149141.94;;;21.26
48628;BMP280;34424;52.234;6.500;2022-08-02T06:51:39;149501.47;;;22.72
48628;BMP280;34424;52.234;6.500;2022-08-02T06:56:42;149932.59;;;24.47
48628;BMP280;34424;52.234;6.500;2022-08-02T07:01:44;150061.41;;;25.00
48628;BMP280;34424;52.234;6.500;2022-08-02T07:06:48;150051.34;;;24.96
48628;BMP280;34424;52.234;6.500;2022-08-02T07:11:51;150173.94;;;25.46
48628;BMP280;34424;52.234;6.500;2022-08-02T07:16:53;150192.69;;;25.53
48628;BMP280;34424;52.234;6.500;2022-08-02T07:21:59;150387.94;;;26.33
48628;BMP280;34424;52.234;6.500;2022-08-02T07:27:02;150431.81;;;26.50
48628;BMP280;34424;52.234;6.500;2022-08-02T07:32:14;150580.78;;;27.11
48628;BMP280;34424;52.234;6.500;2022-08-02T07:37:18;150401.75;;;26.38
48628;BMP280;34424;52.234;6.500;2022-08-02T07:42:42;150424.25;;;26.47
48628;BMP280;34424;52.234;6.500;2022-08-02T07:47:45;150489.38;;;26.74
48628;BMP280;34424;52.234;6.500;2022-08-02T07:52:49;150538.16;;;26.93
48628;BMP280;34424;52.234;6.500;2022-08-02T07:57:58;150535.66;;;26.92
48628;BMP280;34424;52.234;6.500;2022-08-02T08:03:00;150698.47;;;27.59
48628;BMP280;34424;52.234;6.500;2022-08-02T08:08:04;151066.94;;;29.08
48628;BMP280;34424;52.234;6.500;2022-08-02T08:13:07;151150.94;;;29.42
48628;BMP280;34424;52.234;6.500;2022-08-02T08:18:10;151193.63;;;29.59
48628;BMP280;34424;52.234;6.500;2022-08-02T08:23:14;151150.94;;;29.42
48628;BMP280;34424;52.234;6.500;2022-08-02T08:28:17;151028.13;;;28.92
48628;BMP280;34424;52.234;6.500;2022-08-02T08:33:19;150980.44;;;28.73
48628;BMP280;34424;52.234;6.500;2022-08-02T08:38:23;150929.06;;;28.52
48628;BMP280;34424;52.234;6.500;2022-08-02T08:43:28;151018.09;;;28.88
48628;BMP280;34424;52.234;6.500;2022-08-02T08:48:31;151043.16;;;28.98
48628;BMP280;34424;52.234;6.500;2022-08-02T08:53:42;151113.31;;;29.27
48628;BMP280;34424;52.234;6.500;2022-08-02T08:58:45;151064.44;;;29.07
48628;BMP280;34424;52.234;6.500;2022-08-02T09:03:48;151192.38;;;29.59
48628;BMP280;34424;52.234;6.500;2022-08-02T09:08:52;151350.41;;;30.23
48628;BMP280;34424;52.234;6.500;2022-08-02T09:13:56;151428.19;;;30.54
48628;BMP280;34424;52.234;6.500;2022-08-02T09:19:00;151433.22;;;30.57
48628;BMP280;34424;52.234;6.500;2022-08-02T09:24:20;151293.91;;;30.00
48628;BMP280;34424;52.234;6.500;2022-08-02T09:29:23;151401.81;;;30.44
48628;BMP280;34424;52.234;6.500;2022-08-02T09:34:28;151504.75;;;30.85
48628;BMP280;34424;52.234;6.500;2022-08-02T09:39:45;151488.44;;;30.79
48628;BMP280;34424;52.234;6.500;2022-08-02T09:44:54;151332.84;;;30.16
48628;BMP280;34424;52.234;6.500;2022-08-02T09:49:57;151534.84;;;30.98
48628;BMP280;34424;52.234;6.500;2022-08-02T09:55:03;151517.28;;;30.91
48628;BMP280;34424;52.234;6.500;2022-08-02T10:00:08;151672.94;;;31.54
48628;BMP280;34424;52.234;6.500;2022-08-02T10:05:18;151554.94;;;31.06
48628;BMP280;34424;52.234;6.500;2022-08-02T10:10:24;151685.50;;;31.59
48628;BMP280;34424;52.234;6.500;2022-08-02T10:15:27;151828.63;;;32.17
48628;BMP280;34424;52.234;6.500;2022-08-02T10:20:32;151828.63;;;32.17
48628;BMP280;34424;52.234;6.500;2022-08-02T10:25:38;151517.28;;;30.91
48628;BMP280;34424;52.234;6.500;2022-08-02T10:30:43;151556.19;;;31.06
48628;BMP280;34424;52.234;6.500;2022-08-02T10:35:49;151696.78;;;31.63
48628;BMP280;34424;52.234;6.500;2022-08-02T10:41:10;151499.72;;;30.83
48628;BMP280;34424;52.234;6.500;2022-08-02T10:46:20;151429.44;;;30.55
48628;BMP280;34424;52.234;6.500;2022-08-02T10:51:22;151606.44;;;31.27
48628;BMP280;34424;52.234;6.500;2022-08-02T10:56:45;151487.19;;;30.78
48628;BMP280;34424;52.234;6.500;2022-08-02T11:01:48;151316.56;;;30.09
48628;BMP280;34424;52.234;6.500;2022-08-02T11:07:11;151216.19;;;29.69
48628;BMP280;34424;52.234;6.500;2022-08-02T11:12:18;151178.56;;;29.53
48628;BMP280;34424;52.234;6.500;2022-08-02T11:17:20;151245.00;;;29.80
48628;BMP280;34424;52.234;6.500;2022-08-02T11:22:23;151309.03;;;30.06
48628;BMP280;34424;52.234;6.500;2022-08-02T11:27:28;151365.47;;;30.29
48628;BMP280;34424;52.234;6.500;2022-08-02T11:32:31;151386.78;;;30.38
48628;BMP280;34424;52.234;6.500;2022-08-02T11:37:38;151512.28;;;30.89
48628;BMP280;34424;52.234;6.500;2022-08-02T11:42:44;151734.50;;;31.79
48628;BMP280;34424;52.234;6.500;2022-08-02T11:47:51;151847.47;;;32.24
48628;BMP280;34424;52.234;6.500;2022-08-02T11:52:54;151635.28;;;31.38
48628;BMP280;34424;52.234;6.500;2022-08-02T11:57:59;151575.00;;;31.14
48628;BMP280;34424;52.234;6.500;2022-08-02T12:03:06;151485.94;;;30.78
48628;BMP280;34424;52.234;6.500;2022-08-02T12:08:09;151332.84;;;30.16
48628;BMP280;34424;52.234;6.500;2022-08-02T12:13:14;151317.81;;;30.10
48628;BMP280;34424;52.234;6.500;2022-08-02T12:18:18;151384.28;;;30.37
48628;BMP280;34424;52.234;6.500;2022-08-02T12:23:42;151439.47;;;30.59
48628;BMP280;34424;52.234;6.500;2022-08-02T12:29:02;151577.50;;;31.15
48628;BMP280;34424;52.234;6.500;2022-08-02T12:34:12;151667.94;;;31.52
48628;BMP280;34424;52.234;6.500;2022-08-02T12:39:17;151910.31;;;32.50
48628;BMP280;34424;52.234;6.500;2022-08-02T12:44:21;151557.44;;;31.07
48628;BMP280;34424;52.234;6.500;2022-08-02T12:49:23;151616.47;;;31.31
48628;BMP280;34424;52.234;6.500;2022-08-02T12:54:27;151469.59;;;30.71
48628;BMP280;34424;52.234;6.500;2022-08-02T12:59:35;151737.00;;;31.80
48628;BMP280;34424;52.234;6.500;2022-08-02T13:04:39;151439.47;;;30.59
48628;BMP280;34424;52.234;6.500;2022-08-02T13:09:50;151665.41;;;31.51
48628;BMP280;34424;52.234;6.500;2022-08-02T13:15:06;151554.94;;;31.06
48628;BMP280;34424;52.234;6.500;2022-08-02T13:20:29;151606.44;;;31.27
48628;BMP280;34424;52.234;6.500;2022-08-02T13:25:32;151768.34;;;31.92
48628;BMP280;34424;52.234;6.500;2022-08-02T13:30:36;151911.56;;;32.50
48628;BMP280;34424;52.234;6.500;2022-08-02T13:35:38;151700.53;;;31.65
48628;BMP280;34424;52.234;6.500;2022-08-02T13:40:41;151595.09;;;31.22
48628;BMP280;34424;52.234;6.500;2022-08-02T13:46:07;151334.09;;;30.16
48628;BMP280;34424;52.234;6.500;2022-08-02T13:51:09;151327.84;;;30.14
48628;BMP280;34424;52.234;6.500;2022-08-02T13:56:15;151275.13;;;29.92
48628;BMP280;34424;52.234;6.500;2022-08-02T14:01:19;151334.09;;;30.16
48628;BMP280;34424;52.234;6.500;2022-08-02T14:06:22;151401.81;;;30.44
48628;BMP280;34424;52.234;6.500;2022-08-02T14:11:24;151436.97;;;30.58
48628;BMP280;34424;52.234;6.500;2022-08-02T14:16:28;151238.75;;;29.78
48628;BMP280;34424;52.234;6.500;2022-08-02T14:21:33;151247.56;;;29.81
48628;BMP280;34424;52.234;6.500;2022-08-02T14:26:48;151490.97;;;30.80
48628;BMP280;34424;52.234;6.500;2022-08-02T14:31:52;151357.91;;;30.26
48628;BMP280;34424;52.234;6.500;2022-08-02T14:36:55;151270.09;;;29.90
48628;BMP280;34424;52.234;6.500;2022-08-02T14:41:58;151253.81;;;29.84
48628;BMP280;34424;52.234;6.500;2022-08-02T14:47:02;151531.06;;;30.96
48628;BMP280;34424;52.234;6.500;2022-08-02T14:52:06;151324.06;;;30.12
48628;BMP280;34424;52.234;6.500;2022-08-02T14:57:08;151272.63;;;29.91
48628;BMP280;34424;52.234;6.500;2022-08-02T15:02:12;151246.25;;;29.81
48628;BMP280;34424;52.234;6.500;2022-08-02T15:07:16;151144.69;;;29.40
48628;BMP280;34424;52.234;6.500;2022-08-02T15:12:18;151173.53;;;29.51
48628;BMP280;34424;52.234;6.500;2022-08-02T15:17:22;151231.22;;;29.75
48628;BMP280;34424;52.234;6.500;2022-08-02T15:22:25;151178.56;;;29.53
48628;BMP280;34424;52.234;6.500;2022-08-02T15:27:29;151370.50;;;30.31
48628;BMP280;34424;52.234;6.500;2022-08-02T15:32:33;151538.59;;;30.99
48628;BMP280;34424;52.234;6.500;2022-08-02T15:37:35;151517.28;;;30.91
48628;BMP280;34424;52.234;6.500;2022-08-02T15:42:41;151564.97;;;31.10
48628;BMP280;34424;52.234;6.500;2022-08-02T15:47:46;151582.56;;;31.17
48628;BMP280;34424;52.234;6.500;2022-08-02T15:52:51;151529.81;;;30.96
48628;BMP280;34424;52.234;6.500;2022-08-02T15:57:53;151659.16;;;31.48
48628;BMP280;34424;52.234;6.500;2022-08-02T16:02:57;151626.50;;;31.35
48628;BMP280;34424;52.234;6.500;2022-08-02T16:08:00;151610.19;;;31.28
48628;BMP280;34424;52.234;6.500;2022-08-02T16:13:02;151577.50;;;31.15
48628;BMP280;34424;52.234;6.500;2022-08-02T16:18:24;151677.97;;;31.56
48628;BMP280;34424;52.234;6.500;2022-08-02T16:23:27;151600.19;;;31.24
48628;BMP280;34424;52.234;6.500;2022-08-02T16:28:49;151682.97;;;31.58
48628;BMP280;34424;52.234;6.500;2022-08-02T16:33:53;151642.81;;;31.41
48628;BMP280;34424;52.234;6.500;2022-08-02T16:38:57;151484.69;;;30.77
48628;BMP280;34424;52.234;6.500;2022-08-02T16:44:00;151608.94;;;31.28
48628;BMP280;34424;52.234;6.500;2022-08-02T16:49:04;151578.75;;;31.15
48628;BMP280;34424;52.234;6.500;2022-08-02T16:54:27;151489.72;;;30.79
48628;BMP280;34424;52.234;6.500;2022-08-02T16:59:29;151607.69;;;31.27
48628;BMP280;34424;52.234;6.500;2022-08-02T17:04:44;151479.63;;;30.75
48628;BMP280;34424;52.234;6.500;2022-08-02T17:09:47;151502.25;;;30.84
48628;BMP280;34424;52.234;6.500;2022-08-02T17:15:08;151449.53;;;30.63
48628;BMP280;34424;52.234;6.500;2022-08-02T17:20:32;151361.69;;;30.28
48628;BMP280;34424;52.234;6.500;2022-08-02T17:25:34;151271.34;;;29.91
48628;BMP280;34424;52.234;6.500;2022-08-02T17:30:42;151238.75;;;29.78
48628;BMP280;34424;52.234;6.500;2022-08-02T17:35:46;151187.31;;;29.57
48628;BMP280;34424;52.234;6.500;2022-08-02T17:41:09;151120.84;;;29.30
48628;BMP280;34424;52.234;6.500;2022-08-02T17:46:15;151030.63;;;28.93
48628;BMP280;34424;52.234;6.500;2022-08-02T17:51:19;151008.00;;;28.84
48628;BMP280;34424;52.234;6.500;2022-08-02T17:56:42;150865.16;;;28.26
48628;BMP280;34424;52.234;6.500;2022-08-02T18:01:46;150682.22;;;27.52
48628;BMP280;34424;52.234;6.500;2022-08-02T18:07:10;150546.91;;;26.97
48628;BMP280;34424;52.234;6.500;2022-08-02T18:12:23;150475.56;;;26.68
48628;BMP280;34424;52.234;6.500;2022-08-02T18:17:28;150408.00;;;26.41
48628;BMP280;34424;52.234;6.500;2022-08-02T18:22:32;150361.63;;;26.22
48628;BMP280;34424;52.234;6.500;2022-08-02T18:27:35;150311.59;;;26.01
48628;BMP280;34424;52.234;6.500;2022-08-02T18:32:39;150249.03;;;25.76
48628;BMP280;34424;52.234;6.500;2022-08-02T18:38:03;150188.94;;;25.52
48628;BMP280;34424;52.234;6.500;2022-08-02T18:43:11;150111.41;;;25.20
48628;BMP280;34424;52.234;6.500;2022-08-02T18:48:14;150048.84;;;24.95
48628;BMP280;34424;52.234;6.500;2022-08-02T18:53:19;149982.59;;;24.68
48628;BMP280;34424;52.234;6.500;2022-08-02T18:58:42;149921.34;;;24.43
48628;BMP280;34424;52.234;6.500;2022-08-02T19:03:45;149862.56;;;24.19
48628;BMP280;34424;52.234;6.500;2022-08-02T19:09:09;149797.59;;;23.93
48628;BMP280;34424;52.234;6.500;2022-08-02T19:14:13;149742.59;;;23.70
48628;BMP280;34424;52.234;6.500;2022-08-02T19:19:28;149685.09;;;23.47
48628;BMP280;34424;52.234;6.500;2022-08-02T19:24:35;149620.16;;;23.20
48628;BMP280;34424;52.234;6.500;2022-08-02T19:29:42;149581.41;;;23.05
48628;BMP280;34424;52.234;6.500;2022-08-02T19:34:49;149558.94;;;22.95
48628;BMP280;34424;52.234;6.500;2022-08-02T19:39:53;149513.94;;;22.77
48628;BMP280;34424;52.234;6.500;2022-08-02T19:44:59;149486.44;;;22.66
48628;BMP280;34424;52.234;6.500;2022-08-02T19:50:04;149435.25;;;22.45
48628;BMP280;34424;52.234;6.500;2022-08-02T19:55:11;149376.59;;;22.21
48628;BMP280;34424;52.234;6.500;2022-08-02T20:00:34;149310.38;;;21.94
48628;BMP280;34424;52.234;6.500;2022-08-02T20:05:36;149261.72;;;21.74
48628;BMP280;34424;52.234;6.500;2022-08-02T20:10:41;149228.06;;;21.61
48628;BMP280;34424;52.234;6.500;2022-08-02T20:15:48;149175.66;;;21.39
48628;BMP280;34424;52.234;6.500;2022-08-02T20:20:57;149139.44;;;21.25
48628;BMP280;34424;52.234;6.500;2022-08-02T20:26:00;149114.47;;;21.14
48628;BMP280;34424;52.234;6.500;2022-08-02T20:31:05;149093.28;;;21.06
48628;BMP280;34424;52.234;6.500;2022-08-02T20:36:09;149075.78;;;20.99
48628;BMP280;34424;52.234;6.500;2022-08-02T20:41:14;149047.13;;;20.87
48628;BMP280;34424;52.234;6.500;2022-08-02T20:46:22;149012.19;;;20.73
48628;BMP280;34424;52.234;6.500;2022-08-02T20:51:24;148971.03;;;20.56
48628;BMP280;34424;52.234;6.500;2022-08-02T20:56:35;148942.38;;;20.44
48628;BMP280;34424;52.234;6.500;2022-08-02T21:01:38;148916.13;;;20.34
48628;BMP280;34424;52.234;6.500;2022-08-02T21:06:57;148901.19;;;20.28
48628;BMP280;34424;52.234;6.500;2022-08-02T21:12:02;148891.22;;;20.23
48628;BMP280;34424;52.234;6.500;2022-08-02T21:17:06;148881.25;;;20.19
48628;BMP280;34424;52.234;6.500;2022-08-02T21:22:09;148855.03;;;20.09
48628;BMP280;34424;52.234;6.500;2022-08-02T21:27:13;148841.34;;;20.03
48628;BMP280;34424;52.234;6.500;2022-08-02T21:32:36;148812.69;;;19.91
48628;BMP280;34424;52.234;6.500;2022-08-02T21:37:39;148798.94;;;19.86
48628;BMP280;34424;52.234;6.500;2022-08-02T21:42:46;148785.25;;;19.80
48628;BMP280;34424;52.234;6.500;2022-08-02T21:47:49;148769.06;;;19.74
48628;BMP280;34424;52.234;6.500;2022-08-02T21:52:51;148752.88;;;19.67
48628;BMP280;34424;52.234;6.500;2022-08-02T21:57:55;148740.38;;;19.62
48628;BMP280;34424;52.234;6.500;2022-08-02T22:02:58;148710.47;;;19.50
48628;BMP280;34424;52.234;6.500;2022-08-02T22:08:20;148673.06;;;19.35
48628;BMP280;34424;52.234;6.500;2022-08-02T22:13:25;148640.69;;;19.21
48628;BMP280;34424;52.234;6.500;2022-08-02T22:18:38;148618.25;;;19.12
48628;BMP280;34424;52.234;6.500;2022-08-02T22:23:49;148600.81;;;19.05
48628;BMP280;34424;52.234;6.500;2022-08-02T22:28:54;148585.88;;;18.99
48628;BMP280;34424;52.234;6.500;2022-08-02T22:34:01;148582.16;;;18.97
48628;BMP280;34424;52.234;6.500;2022-08-02T22:39:30;148564.69;;;18.90
48628;BMP280;34424;52.234;6.500;2022-08-02T22:44:34;148548.50;;;18.84
48628;BMP280;34424;52.234;6.500;2022-08-02T22:49:37;148536.06;;;18.79
48628;BMP280;34424;52.234;6.500;2022-08-02T22:54:54;148528.59;;;18.76
48628;BMP280;34424;52.234;6.500;2022-08-02T22:59:59;148522.38;;;18.73
48628;BMP280;34424;52.234;6.500;2022-08-02T23:05:05;148522.38;;;18.73
48628;BMP280;34424;52.234;6.500;2022-08-02T23:10:08;148528.59;;;18.76
48628;BMP280;34424;52.234;6.500;2022-08-02T23:15:12;148508.63;;;18.67
48628;BMP280;34424;52.234;6.500;2022-08-02T23:20:14;148497.44;;;18.63
48628;BMP280;34424;52.234;6.500;2022-08-02T23:25:17;148481.22;;;18.56
48628;BMP280;34424;52.234;6.500;2022-08-02T23:30:21;148460.06;;;18.48
48628;BMP280;34424;52.234;6.500;2022-08-02T23:35:24;148448.81;;;18.43
48628;BMP280;34424;52.234;6.500;2022-08-02T23:40:27;148435.13;;;18.37
48628;BMP280;34424;52.234;6.500;2022-08-02T23:45:42;148409.00;;;18.27
48628;BMP280;34424;52.234;6.500;2022-08-02T23:50:46;148392.78;;;18.20
48628;BMP280;34424;52.234;6.500;2022-08-02T23:55:48;148362.94;;;18.08
